Time;durP1;ratioP1;P1;durP2;ratioP2;P2;SDS_P1;SDS_P2;PMS_P1;PMS_P2;Temp;Humidity;BMP_temperature;BMP_pressure;BME280_temperature;BME280_humidity;BME280_pressure;Samples;Min_cycle;Max_cycle;Signal;HPM_P1;HPM_P2
2023/08/22 00:00:40;;;;;;;8.50;5.63;;;;;;;-145.63;50.50;39022.28;5025377;28;20097;-69
2023/08/22 00:03:06;;;;;;;9.25;6.57;;;;;;;-145.63;49.96;39032.06;5025295;28;20072;-69
2023/08/22 00:05:32;;;;;;;12.23;6.85;;;;;;;-145.63;49.85;39016.44;5025162;28;20026;-69
2023/08/22 00:07:59;;;;;;;11.50;6.28;;;;;;;-145.63;50.28;39080.97;5025339;28;20025;-70
2023/08/22 00:10:25;;;;;;;14.18;6.60;;;;;;;-145.63;50.08;39035.97;5025231;28;20018;-69
2023/08/22 00:12:51;;;;;;;9.63;6.72;;;;;;;-145.63;50.45;39028.16;5024902;28;20125;-70
2023/08/22 00:15:17;;;;;;;10.35;6.63;;;;;;;-145.63;50.31;39016.44;5034771;28;20113;-69
2023/08/22 00:17:43;;;;;;;9.45;6.22;;;;;;;-145.63;50.05;39026.19;5026169;28;20030;-69
2023/08/22 00:20:13;;;;;;;12.85;7.60;;;;;;;-145.63;50.07;39037.94;5031304;28;20356;-69
2023/08/22 00:22:40;;;;;;;13.85;6.88;;;;;;;-145.63;50.18;38996.88;5033219;28;20044;-69
2023/08/22 00:25:06;;;;;;;11.25;6.72;;;;;;;-145.63;49.94;39032.06;5024905;28;20042;-70
2023/08/22 00:27:33;;;;;;;10.35;6.30;;;;;;;-145.63;50.43;39014.47;5024741;28;20326;-68
2023/08/22 00:29:59;;;;;;;11.52;6.85;;;;;;;-145.63;50.76;39006.66;5024809;28;20293;-68
2023/08/22 00:32:25;;;;;;;9.32;6.72;;;;;;;-145.63;51.35;39016.44;5023670;28;20090;-69
2023/08/22 00:34:51;;;;;;;10.63;6.80;;;;;;;-145.63;51.57;39028.16;5024549;28;20030;-69
2023/08/22 00:37:18;;;;;;;11.10;6.88;;;;;;;-145.63;50.80;39024.25;5023989;28;20225;-69
2023/08/22 00:39:44;;;;;;;14.80;8.75;;;;;;;-145.63;50.15;39035.97;5023282;28;20179;-69
2023/08/22 00:42:10;;;;;;;13.30;8.40;;;;;;;-145.63;50.07;39024.25;5024647;28;20041;-70
2023/08/22 00:44:35;;;;;;;12.52;9.05;;;;;;;-145.63;49.71;39026.19;5024559;28;20030;-69
2023/08/22 00:47:02;;;;;;;12.98;9.27;;;;;;;-145.63;49.09;39063.34;5023919;28;20089;-70
2023/08/22 00:49:28;;;;;;;16.13;9.88;;;;;;;-145.63;49.12;39045.75;5035662;28;20030;-69
2023/08/22 00:51:56;;;;;;;10.80;8.45;;;;;;;-145.63;49.88;39049.66;5036434;28;20059;-69
2023/08/22 00:54:24;;;;;;;12.10;8.80;;;;;;;-145.63;49.81;39141.59;5024549;28;20033;-69
2023/08/22 00:56:50;;;;;;;13.98;10.00;;;;;;;-145.63;49.96;39014.47;5024128;28;20026;-70
2023/08/22 00:59:16;;;;;;;15.13;11.18;;;;;;;-145.63;49.68;39008.59;5024319;28;20042;-70
2023/08/22 01:01:42;;;;;;;12.25;10.35;;;;;;;-145.63;49.65;39026.19;5024137;28;20026;-68
2023/08/22 01:04:07;;;;;;;16.48;11.20;;;;;;;-145.63;49.39;39067.28;5024217;28;20038;-68
2023/08/22 01:06:53;;;;;;;15.23;12.15;;;;;;;-145.63;48.67;39071.19;5024488;28;20315;-68
2023/08/22 01:09:23;;;;;;;17.45;11.57;;;;;;;-145.63;48.78;39024.25;5003386;28;20333;-70
2023/08/22 01:11:52;;;;;;;16.13;11.32;;;;;;;-145.63;49.08;39116.16;5021436;28;20064;-68
2023/08/22 01:14:20;;;;;;;13.15;10.55;;;;;;;-145.63;49.19;38920.59;5023928;28;20029;-69
2023/08/22 01:16:48;;;;;;;16.33;11.18;;;;;;;-145.63;49.05;39045.75;5023638;28;20093;-68
2023/08/22 01:19:18;;;;;;;15.80;10.90;;;;;;;-145.63;49.15;39024.25;5022930;28;20052;-69
2023/08/22 01:21:51;;;;;;;15.48;10.50;;;;;;;-145.63;49.40;39080.97;5023828;28;20311;-68
2023/08/22 01:24:16;;;;;;;18.88;12.23;;;;;;;-145.63;49.39;39045.75;5023728;28;20187;-71
2023/08/22 01:26:44;;;;;;;19.15;11.73;;;;;;;-145.63;49.55;39057.50;5023683;28;20052;-70
2023/08/22 01:29:14;;;;;;;19.98;12.95;;;;;;;-145.63;49.76;39075.09;5023539;28;20034;-70
2023/08/22 01:31:50;;;;;;;17.92;13.18;;;;;;;-145.63;50.01;39098.56;5022465;28;20037;-69
2023/08/22 01:34:20;;;;;;;27.30;14.93;;;;;;;-145.63;49.08;39294.13;5023534;28;20018;-70
2023/08/22 01:36:47;;;;;;;27.48;16.15;;;;;;;-145.63;48.10;39067.28;5022122;28;20025;-70
2023/08/22 01:39:16;;;;;;;26.92;16.40;;;;;;;-145.63;46.90;39002.72;5023582;28;20104;-68
2023/08/22 01:41:42;;;;;;;30.58;16.30;;;;;;;-145.63;47.05;39063.34;5023634;28;20017;-69
2023/08/22 01:44:07;;;;;;;22.92;13.30;;;;;;;-145.63;49.19;39037.94;5023484;28;20025;-70
2023/08/22 01:46:33;;;;;;;17.38;12.13;;;;;;;-145.63;50.27;39020.34;5023608;28;20085;-69
2023/08/22 01:48:59;;;;;;;17.88;12.73;;;;;;;-145.63;50.04;39028.16;5025724;28;20026;-69
2023/08/22 01:51:24;;;;;;;17.75;12.63;;;;;;;-145.63;50.19;39055.53;5021714;28;20030;-67
2023/08/22 01:53:50;;;;;;;21.02;13.05;;;;;;;-145.63;50.02;39057.50;5020053;28;20034;-68
2023/08/22 01:56:16;;;;;;;21.27;12.90;;;;;;;-145.63;49.76;39061.41;5015999;28;20034;-69
2023/08/22 01:58:42;;;;;;;22.08;13.70;;;;;;;-145.63;49.26;39086.81;5023202;28;20092;-68
2023/08/22 02:01:12;;;;;;;19.60;13.05;;;;;;;-145.63;49.34;39061.41;5022209;28;20101;-69
2023/08/22 02:03:40;;;;;;;25.48;17.70;;;;;;;-145.63;49.23;39080.97;5023491;28;20057;-68
2023/08/22 02:06:06;;;;;;;24.05;15.13;;;;;;;-145.63;48.94;39077.06;5023567;28;20037;-68
2023/08/22 02:08:31;;;;;;;21.73;14.40;;;;;;;-145.63;49.21;39086.81;5023421;28;20026;-69
2023/08/22 02:10:57;;;;;;;23.80;14.73;;;;;;;-145.63;49.40;39090.75;5022937;28;20042;-69
2023/08/22 02:13:23;;;;;;;19.45;13.32;;;;;;;-145.63;49.55;39073.13;5022014;28;20041;-69
2023/08/22 02:15:49;;;;;;;22.42;15.80;;;;;;;-145.63;49.64;39094.66;5023189;28;20193;-68
2023/08/22 02:18:15;;;;;;;20.55;15.75;;;;;;;-145.63;49.50;39063.34;5023367;28;20040;-67
2023/08/22 02:20:41;;;;;;;22.35;15.18;;;;;;;-145.63;49.39;39090.75;5023050;28;20030;-69
2023/08/22 02:23:07;;;;;;;17.45;13.27;;;;;;;-145.63;49.69;39071.19;5023307;28;20092;-68
2023/08/22 02:25:33;;;;;;;22.13;13.82;;;;;;;-145.63;49.70;39090.75;5021691;28;20195;-69
2023/08/22 02:27:59;;;;;;;22.55;13.45;;;;;;;-145.63;49.86;39082.91;5022787;28;20030;-68
2023/08/22 02:30:25;;;;;;;19.80;12.93;;;;;;;-145.63;49.82;39082.91;5023296;28;20029;-68
2023/08/22 02:32:51;;;;;;;21.08;14.00;;;;;;;-145.63;49.92;39100.50;5022946;28;20052;-68
2023/08/22 02:35:16;;;;;;;21.58;13.63;;;;;;;-145.63;49.76;39073.13;5023088;28;20317;-69
2023/08/22 02:37:42;;;;;;;21.38;13.15;;;;;;;-145.63;49.76;38867.81;5023572;28;20334;-69
2023/08/22 02:40:11;;;;;;;22.45;13.45;;;;;;;-145.63;49.75;39082.91;5022197;28;20133;-69
2023/08/22 02:42:37;;;;;;;22.65;13.90;;;;;;;-145.63;49.60;39059.44;5023250;28;20029;-69
2023/08/22 02:45:04;;;;;;;20.02;12.35;;;;;;;-145.63;49.27;39118.13;5021485;28;20115;-68
2023/08/22 02:47:31;;;;;;;19.83;13.60;;;;;;;-145.63;49.61;39035.97;5024928;28;20100;-69
2023/08/22 02:49:58;;;;;;;19.90;12.43;;;;;;;-145.63;49.90;39090.75;5036693;28;20026;-68
2023/08/22 02:52:24;;;;;;;19.60;12.85;;;;;;;-145.63;50.57;39127.91;5026172;28;20033;-69
2023/08/22 02:54:51;;;;;;;19.92;12.95;;;;;;;-145.63;50.62;39098.56;5023601;28;20018;-69
2023/08/22 02:57:17;;;;;;;17.75;11.82;;;;;;;-145.63;50.49;39071.19;5022846;28;20029;-69
2023/08/22 02:59:42;;;;;;;21.02;12.90;;;;;;;-145.63;50.44;39075.09;5022621;28;20029;-70
2023/08/22 03:02:08;;;;;;;22.40;12.48;;;;;;;-145.63;50.56;39063.34;5025051;28;20033;-70
2023/08/22 03:04:36;;;;;;;22.23;12.77;;;;;;;-145.63;50.62;39071.19;5026544;28;20030;-70
2023/08/22 03:07:03;;;;;;;19.23;12.75;;;;;;;-145.63;50.26;39063.34;5026216;28;20097;-69
2023/08/22 03:09:29;;;;;;;22.00;12.75;;;;;;;-145.63;50.22;39106.38;5026191;28;20042;-69
2023/08/22 03:11:55;;;;;;;22.77;12.85;;;;;;;-145.63;50.15;39043.81;5026132;28;20175;-69
2023/08/22 03:14:21;;;;;;;23.02;12.88;;;;;;;-145.63;49.93;39043.81;5026232;28;20040;-69
2023/08/22 03:16:47;;;;;;;19.73;12.77;;;;;;;-145.63;49.94;39063.34;5026062;28;20030;-69
2023/08/22 03:19:13;;;;;;;22.35;12.57;;;;;;;-145.63;50.25;39090.75;5026162;28;20034;-69
2023/08/22 03:21:38;;;;;;;17.73;13.07;;;;;;;-145.63;50.05;38433.69;5026238;28;20046;-69
2023/08/22 03:24:04;;;;;;;18.30;12.68;;;;;;;-145.63;50.00;39030.13;5025183;28;20101;-71
2023/08/22 03:26:30;;;;;;;21.92;13.02;;;;;;;-145.63;50.19;39012.50;5026067;28;20033;-69
2023/08/22 03:28:56;;;;;;;24.90;16.23;;;;;;;-145.63;48.62;39073.13;5025270;28;20030;-69
2023/08/22 03:31:25;;;;;;;24.67;14.80;;;;;;;-145.63;48.79;39037.94;5025689;28;20064;-69
2023/08/22 03:33:51;;;;;;;24.80;13.93;;;;;;;-145.63;49.31;39045.75;5025714;28;20075;-69
2023/08/22 03:36:17;;;;;;;35.80;17.77;;;;;;;-145.63;48.59;39057.50;5025466;28;20044;-68
2023/08/22 03:38:43;;;;;;;27.42;17.35;;;;;;;-145.63;48.25;39028.16;5043979;28;20202;-68
2023/08/22 03:41:09;;;;;;;24.80;15.60;;;;;;;-145.63;48.25;39084.88;5028154;28;20065;-71
2023/08/22 03:43:35;;;;;;;22.80;17.73;;;;;;;-145.63;48.03;39010.56;5025681;28;20056;-70
2023/08/22 03:46:01;;;;;;;26.85;16.38;;;;;;;-145.63;48.35;39006.66;5025496;28;20233;-69
2023/08/22 03:48:26;;;;;;;30.10;19.98;;;;;;;-145.63;48.00;38977.31;5031309;28;20194;-69
2023/08/22 03:50:52;;;;;;;26.17;17.05;;;;;;;-145.63;48.10;39114.22;5033866;28;20033;-69
2023/08/22 03:53:18;;;;;;;24.80;17.02;;;;;;;-145.63;48.20;38977.31;5037020;28;20093;-68
2023/08/22 03:55:44;;;;;;;24.60;17.52;;;;;;;-145.63;48.41;38893.22;5025180;28;20041;-68
2023/08/22 03:58:10;;;;;;;30.13;23.08;;;;;;;-145.63;46.57;39020.34;5006964;28;20365;-69
2023/08/22 04:00:36;;;;;;;28.17;20.75;;;;;;;-145.63;46.93;39000.78;5038059;28;20086;-70
2023/08/22 04:03:02;;;;;;;33.58;21.02;;;;;;;-145.63;45.70;39000.78;5038424;28;20037;-69
2023/08/22 04:05:28;;;;;;;29.33;19.83;;;;;;;-145.63;45.99;38979.28;5032363;28;20090;-68
2023/08/22 04:07:54;;;;;;;25.90;17.42;;;;;;;-145.63;46.30;38887.34;5023781;28;20026;-69
2023/08/22 04:10:20;;;;;;;25.40;17.52;;;;;;;-145.63;46.69;38971.44;5025299;28;20037;-69
2023/08/22 04:12:46;;;;;;;26.98;16.73;;;;;;;-145.63;46.48;39006.66;5025275;28;20037;-68
2023/08/22 04:15:12;;;;;;;29.45;17.33;;;;;;;-145.63;45.89;39014.47;5024968;28;20104;-67
2023/08/22 04:17:41;;;;;;;27.10;17.73;;;;;;;-145.63;47.06;39000.78;5024673;28;20044;-68
2023/08/22 04:20:09;;;;;;;23.08;13.70;;;;;;;-145.63;44.33;38975.34;5025028;28;20105;-69
2023/08/22 04:22:35;;;;;;;19.65;12.98;;;;;;;-145.63;43.87;38996.88;5024763;28;20058;-69
2023/08/22 04:25:01;;;;;;;22.92;12.98;;;;;;;-145.63;43.78;39024.25;5023552;28;20097;-68
2023/08/22 04:27:28;;;;;;;22.30;11.57;;;;;;;-145.63;43.04;38998.81;5025324;28;20071;-69
2023/08/22 04:29:54;;;;;;;24.40;11.95;;;;;;;-145.63;43.33;38967.53;5024898;28;20038;-70
2023/08/22 04:32:19;;;;;;;22.20;12.23;;;;;;;-145.63;43.27;38996.88;5026711;28;20117;-69
2023/08/22 04:34:45;;;;;;;21.15;12.07;;;;;;;-145.63;43.51;38944.06;5024763;28;20037;-70
2023/08/22 04:37:11;;;;;;;20.27;12.23;;;;;;;-145.63;42.95;38949.94;5024384;28;20344;-70
2023/08/22 04:39:36;;;;;;;24.38;12.52;;;;;;;-145.63;42.43;38938.19;5024574;28;20105;-68
2023/08/22 04:42:02;;;;;;;14.68;11.70;;;;;;;-145.63;42.50;38957.75;5010343;28;20034;-69
2023/08/22 04:44:28;;;;;;;21.33;12.18;;;;;;;-145.63;42.07;38938.19;5017108;28;20037;-69
2023/08/22 04:46:53;;;;;;;16.17;11.27;;;;;;;-145.63;42.64;38920.59;5025163;28;20026;-70
2023/08/22 04:49:19;;;;;;;22.10;12.45;;;;;;;-145.63;42.96;38942.13;5036303;28;20034;-70
2023/08/22 04:51:45;;;;;;;18.95;11.68;;;;;;;-145.63;42.88;38883.44;5030449;28;20029;-71
2023/08/22 04:54:11;;;;;;;19.02;11.43;;;;;;;-145.63;42.05;38887.34;5024325;28;20030;-70
2023/08/22 04:56:36;;;;;;;17.85;11.75;;;;;;;-145.63;41.71;38991.00;5023781;28;20037;-70
2023/08/22 04:59:02;;;;;;;17.52;11.98;;;;;;;-145.63;42.05;38883.44;5024237;28;20046;-70
2023/08/22 05:01:28;;;;;;;24.75;13.75;;;;;;;-145.63;42.12;38889.31;5023890;28;20029;-72
2023/08/22 05:03:53;;;;;;;23.58;14.57;;;;;;;-145.63;42.46;38922.56;5024392;28;20097;-72
2023/08/22 05:06:19;;;;;;;17.70;12.32;;;;;;;-145.63;42.72;38879.53;5023086;28;20190;-70
2023/08/22 05:08:45;;;;;;;19.25;13.05;;;;;;;-145.63;42.01;38844.34;5023814;28;20022;-70
2023/08/22 05:11:10;;;;;;;23.80;14.35;;;;;;;-145.63;43.11;38887.34;5023760;28;20037;-71
2023/08/22 05:13:37;;;;;;;25.42;15.70;;;;;;;-145.63;42.45;38871.72;5029730;28;20299;-69
2023/08/22 05:16:03;;;;;;;26.42;15.32;;;;;;;-145.63;42.73;38854.13;5029768;28;20037;-69
2023/08/22 05:18:29;;;;;;;21.15;14.23;;;;;;;-145.63;42.33;38879.53;5035597;28;20022;-71
2023/08/22 05:20:54;;;;;;;24.23;14.60;;;;;;;-145.63;42.88;38795.44;5023751;28;20026;-71
2023/08/22 05:23:20;;;;;;;23.67;14.88;;;;;;;-145.63;42.48;38852.16;5023941;28;20109;-70
2023/08/22 05:25:46;;;;;;;19.48;14.13;;;;;;;-145.63;42.29;38836.50;5023685;28;20033;-69
2023/08/22 05:28:12;;;;;;;23.50;13.75;;;;;;;-145.63;42.05;38834.56;5023919;28;20030;-69
2023/08/22 05:30:38;;;;;;;21.73;13.80;;;;;;;-145.63;41.98;38815.00;5023590;28;20084;-70
2023/08/22 05:33:05;;;;;;;20.83;13.80;;;;;;;-145.63;41.64;38793.50;5023706;28;20506;-69
2023/08/22 05:35:31;;;;;;;25.38;17.77;;;;;;;-145.63;41.89;38797.41;5023987;28;20034;-71
2023/08/22 05:37:57;;;;;;;23.05;14.30;;;;;;;-145.63;41.50;38816.97;5021465;28;20030;-71
2023/08/22 05:40:23;;;;;;;23.02;13.10;;;;;;;-145.63;41.71;38824.78;5025084;28;20290;-70
2023/08/22 05:42:50;;;;;;;23.00;13.60;;;;;;;-145.63;42.08;38789.59;5023332;28;20057;-70
2023/08/22 05:45:16;;;;;;;18.20;12.57;;;;;;;-145.63;41.50;38791.53;5041066;28;20025;-70
2023/08/22 05:47:42;;;;;;;17.13;10.35;;;;;;;-145.63;41.56;38781.75;5028446;28;20029;-70
2023/08/22 05:50:08;;;;;;;20.13;12.70;;;;;;;-145.63;41.60;38820.88;5029997;28;20029;-69
2023/08/22 05:52:34;;;;;;;15.13;11.55;;;;;;;-145.63;41.72;38787.63;5018982;28;20033;-68
2023/08/22 05:54:59;;;;;;;18.80;11.77;;;;;;;-145.63;41.78;38783.72;5009509;28;20049;-70
2023/08/22 05:57:25;;;;;;;15.00;11.60;;;;;;;-145.63;42.09;38754.38;5007078;28;20084;-69
2023/08/22 05:59:51;;;;;;;16.83;12.52;;;;;;;-145.63;41.88;38777.84;5017251;28;20226;-68
2023/08/22 06:02:17;;;;;;;19.10;11.98;;;;;;;-145.63;41.84;38713.31;5022611;28;20029;-69
2023/08/22 06:04:45;;;;;;;18.42;11.70;;;;;;;-145.63;41.70;38676.16;5023608;28;20029;-67
2023/08/22 06:07:11;;;;;;;22.08;11.80;;;;;;;-145.63;41.75;38703.53;5017763;28;20029;-68
2023/08/22 06:09:36;;;;;;;15.75;10.80;;;;;;;-145.63;42.22;38738.75;5014086;28;20469;-68
2023/08/22 06:12:02;;;;;;;17.60;11.20;;;;;;;-145.63;41.72;38744.59;5016781;28;20042;-67
2023/08/22 06:14:28;;;;;;;15.63;9.95;;;;;;;-145.63;41.72;38746.56;5023326;28;20046;-68
2023/08/22 06:16:54;;;;;;;14.43;10.63;;;;;;;-145.63;40.73;38764.16;5023208;28;20044;-69
2023/08/22 06:19:20;;;;;;;17.77;11.40;;;;;;;-145.63;40.79;38756.34;4997272;28;20384;-69
2023/08/22 06:21:46;;;;;;;18.88;11.07;;;;;;;-145.63;40.77;38766.13;4994539;28;20046;-69
2023/08/22 06:24:12;;;;;;;17.42;10.80;;;;;;;-145.63;41.08;38766.13;5028105;28;20265;-69
2023/08/22 06:26:37;;;;;;;16.42;10.10;;;;;;;-145.63;40.95;38785.66;5022718;28;20284;-68
2023/08/22 06:29:03;;;;;;;20.45;11.18;;;;;;;-145.63;41.15;38734.81;5021583;28;20053;-69
2023/08/22 06:31:31;;;;;;;21.63;10.32;;;;;;;-145.63;41.25;38721.13;5014740;28;20069;-69
2023/08/22 06:33:56;;;;;;;21.40;11.55;;;;;;;-145.63;41.86;38742.66;5004731;28;20040;-70
2023/08/22 06:36:22;;;;;;;21.83;12.30;;;;;;;-145.63;41.89;38750.47;5024255;28;20057;-69
2023/08/22 06:38:48;;;;;;;19.08;12.02;;;;;;;-145.63;41.95;38730.91;5029774;28;20030;-69
2023/08/22 06:41:16;;;;;;;21.42;11.75;;;;;;;-145.63;41.88;38684.00;5017775;28;20049;-68
2023/08/22 06:43:42;;;;;;;21.90;13.50;;;;;;;-145.63;41.64;38717.22;5016607;28;20234;-69
2023/08/22 06:46:08;;;;;;;22.20;13.88;;;;;;;-145.63;41.30;38662.47;5027080;28;20080;-69
2023/08/22 06:48:34;;;;;;;23.52;13.27;;;;;;;-145.63;41.21;38678.13;5031860;28;20029;-69
2023/08/22 06:50:59;;;;;;;21.17;12.60;;;;;;;-145.63;40.95;38668.34;5040547;28;20029;-69
2023/08/22 06:53:25;;;;;;;20.85;12.70;;;;;;;-145.63;41.17;38699.63;5045017;28;20088;-68
2023/08/22 06:55:51;;;;;;;20.70;12.38;;;;;;;-145.63;41.20;38740.69;5036678;28;20026;-69
2023/08/22 06:58:17;;;;;;;22.88;12.13;;;;;;;-145.63;41.22;38701.59;5012777;28;20025;-70
2023/08/22 07:00:43;;;;;;;24.58;12.80;;;;;;;-145.63;40.82;38672.25;5025818;28;20030;-70
2023/08/22 07:03:09;;;;;;;22.15;11.98;;;;;;;-145.63;40.87;38613.59;5025809;28;20025;-70
2023/08/22 07:05:35;;;;;;;23.50;12.55;;;;;;;-145.63;40.77;38652.69;5025849;28;20034;-69
2023/08/22 07:08:01;;;;;;;25.42;12.43;;;;;;;-145.63;40.43;38680.06;5025891;28;20113;-70
2023/08/22 07:10:27;;;;;;;19.50;12.07;;;;;;;-145.63;39.78;38639.00;5029286;28;20092;-68
2023/08/22 07:12:53;;;;;;;22.30;11.70;;;;;;;-145.63;41.09;38597.94;5025476;28;20524;-68
2023/08/22 07:15:19;;;;;;;24.92;12.18;;;;;;;-145.63;39.44;38631.19;5028777;28;20037;-68
2023/08/22 07:17:45;;;;;;;21.92;11.27;;;;;;;-145.63;39.19;38662.47;5022597;28;20302;-68
2023/08/22 07:20:11;;;;;;;18.65;10.73;;;;;;;-145.63;39.92;38578.41;5015652;28;20072;-67
2023/08/22 07:22:36;;;;;;;19.42;11.40;;;;;;;-145.63;39.93;38570.56;5026011;28;20283;-68
2023/08/22 07:25:03;;;;;;;19.25;10.52;;;;;;;-145.63;39.78;38615.53;5026053;28;20087;-67
2023/08/22 07:27:31;;;;;;;23.70;11.32;;;;;;;-145.63;39.69;38631.19;5026234;28;20033;-69
2023/08/22 07:29:58;;;;;;;17.05;9.43;;;;;;;-145.63;40.02;38552.97;5025650;28;20222;-66
2023/08/22 07:32:23;;;;;;;21.60;11.13;;;;;;;-145.63;40.63;38637.06;5025932;28;20080;-67
2023/08/22 07:34:49;;;;;;;22.45;11.75;;;;;;;-145.63;40.20;38605.78;5019777;28;20202;-67
2023/08/22 07:37:16;;;;;;;20.70;11.65;;;;;;;-145.63;39.96;38609.69;5013493;28;20053;-66
2023/08/22 07:39:42;;;;;;;27.08;12.80;;;;;;;-145.63;39.88;38584.25;5025878;28;20310;-66
2023/08/22 07:42:08;;;;;;;22.90;12.13;;;;;;;-145.63;40.22;38582.31;5025691;28;20038;-68
2023/08/22 07:44:34;;;;;;;23.40;11.73;;;;;;;-145.63;40.44;38599.91;5023415;28;20022;-66
2023/08/22 07:47:00;;;;;;;22.30;12.30;;;;;;;-145.63;40.46;38578.41;5027298;28;20045;-66
2023/08/22 07:49:26;;;;;;;21.63;11.25;;;;;;;-145.63;40.54;38680.06;5034441;28;20253;-69
2023/08/22 07:51:52;;;;;;;17.83;11.73;;;;;;;-145.63;40.41;38621.41;5022881;28;20032;-68
2023/08/22 07:54:18;;;;;;;22.42;12.18;;;;;;;-145.63;40.62;38646.84;5023019;28;20037;-68
2023/08/22 07:56:47;;;;;;;24.98;11.40;;;;;;;-145.63;40.36;38607.72;5021317;28;20021;-67
2023/08/22 07:59:13;;;;;;;20.10;11.20;;;;;;;-145.63;39.85;38615.53;5024281;28;20029;-67
2023/08/22 08:01:40;;;;;;;19.65;9.70;;;;;;;-145.63;41.36;38558.84;5030968;28;20080;-67
2023/08/22 08:04:08;;;;;;;19.90;10.48;;;;;;;-145.63;40.56;38594.03;5016365;28;20400;-66
2023/08/22 08:06:34;;;;;;;20.35;10.65;;;;;;;-145.63;39.70;38554.94;5018297;28;20314;-67
2023/08/22 08:09:01;;;;;;;23.00;10.73;;;;;;;-145.63;39.87;38566.66;5017311;28;20061;-68
2023/08/22 08:11:31;;;;;;;15.70;10.45;;;;;;;-145.63;39.73;38508.00;5014167;28;20034;-67
2023/08/22 08:13:57;;;;;;;20.10;10.52;;;;;;;-145.63;39.37;38500.19;5014516;28;20029;-68
2023/08/22 08:16:22;;;;;;;19.38;11.20;;;;;;;-145.63;39.15;38566.66;5014435;28;20030;-67
2023/08/22 08:18:49;;;;;;;20.13;10.63;;;;;;;-145.63;40.59;38519.72;5022126;28;20101;-67
2023/08/22 08:21:15;;;;;;;21.17;11.07;;;;;;;-145.63;38.40;38500.19;5035330;28;20067;-69
2023/08/22 08:23:42;;;;;;;16.27;9.63;;;;;;;-145.63;38.73;38509.97;5023222;28;20026;-67
2023/08/22 08:26:08;;;;;;;19.02;10.48;;;;;;;-145.63;38.50;38496.28;5016731;28;20249;-65
2023/08/22 08:28:34;;;;;;;21.55;9.45;;;;;;;-145.63;38.71;38496.28;5016011;28;20038;-66
2023/08/22 08:30:59;;;;;;;20.83;10.07;;;;;;;-145.63;39.01;38533.41;5015613;28;20022;-66
2023/08/22 08:33:25;;;;;;;16.05;9.68;;;;;;;-145.63;38.60;38551.03;5015524;28;20033;-67
2023/08/22 08:35:51;;;;;;;17.45;9.10;;;;;;;-145.63;38.92;38500.19;5015798;28;20068;-65
2023/08/22 08:38:16;;;;;;;18.38;8.63;;;;;;;-145.63;39.07;38517.78;5024337;28;20148;-65
2023/08/22 08:40:44;;;;;;;16.88;8.05;;;;;;;-145.63;39.55;38519.72;5017621;28;20037;-66
2023/08/22 08:43:10;;;;;;;23.70;8.80;;;;;;;-145.63;39.30;38490.41;5017929;28;20026;-65
2023/08/22 08:45:36;;;;;;;14.88;8.73;;;;;;;-145.63;38.18;38535.38;5014466;28;20029;-65
2023/08/22 08:48:03;;;;;;;18.50;8.85;;;;;;;-145.63;37.77;38502.13;5028275;28;20021;-66
2023/08/22 08:50:30;;;;;;;19.50;9.10;;;;;;;-145.63;38.16;38552.97;5020980;28;20022;-65
2023/08/22 08:52:56;;;;;;;20.08;8.90;;;;;;;-145.63;38.42;38484.53;5017849;28;20034;-65
2023/08/22 08:55:22;;;;;;;17.70;9.30;;;;;;;-145.63;36.95;38500.19;5013850;28;20027;-66
2023/08/22 08:57:48;;;;;;;13.60;8.27;;;;;;;-145.63;37.01;38517.78;5022553;28;20045;-66
2023/08/22 09:00:17;;;;;;;12.18;7.75;;;;;;;-145.63;37.17;38464.97;5020321;28;20030;-66
2023/08/22 09:02:46;;;;;;;13.82;8.15;;;;;;;-145.63;37.64;38443.47;5015387;28;20018;-65
2023/08/22 09:05:12;;;;;;;19.55;8.18;;;;;;;-145.63;36.15;38492.34;5017660;28;20026;-64
2023/08/22 09:07:38;;;;;;;18.50;8.65;;;;;;;-145.63;36.28;38461.06;5016437;28;20084;-65
2023/08/22 09:10:05;;;;;;;13.70;7.50;;;;;;;-145.63;37.68;38527.56;5033171;28;20026;-68
2023/08/22 09:12:35;;;;;;;18.42;7.85;;;;;;;-145.63;37.75;38470.84;5018593;28;20029;-66
2023/08/22 09:15:02;;;;;;;13.25;6.45;;;;;;;-145.63;38.23;38472.81;5017657;28;20018;-66
2023/08/22 09:17:32;;;;;;;12.00;6.47;;;;;;;-145.63;39.19;38488.44;5016621;28;20052;-68
2023/08/22 09:19:58;;;;;;;15.30;7.30;;;;;;;-145.63;36.83;38466.94;5018586;28;20034;-66
2023/08/22 09:22:30;;;;;;;15.43;6.85;;;;;;;-145.63;36.23;38461.06;5015889;28;20044;-66
2023/08/22 09:24:56;;;;;;;12.63;6.43;;;;;;;-145.63;36.47;38451.28;5013298;28;20210;-68
2023/08/22 09:27:25;;;;;;;14.10;7.72;;;;;;;-145.63;35.29;38451.28;5020319;28;20017;-67
2023/08/22 09:29:51;;;;;;;17.95;8.05;;;;;;;-145.63;34.98;38494.31;5023114;28;20029;-68
2023/08/22 09:32:16;;;;;;;12.10;6.53;;;;;;;-145.63;36.19;38466.94;5015021;28;20030;-67
2023/08/22 09:34:55;;;;;;;8.60;5.85;;;;;;;-145.63;36.97;38496.28;4997333;28;20066;-66
2023/08/22 09:37:35;;;;;;;15.98;6.13;;;;;;;-145.63;36.16;38461.06;5015987;28;20029;-67
2023/08/22 09:40:05;;;;;;;14.73;6.90;;;;;;;-145.63;35.71;38463.03;5019942;28;20033;-66
2023/08/22 09:42:31;;;;;;;13.77;7.45;;;;;;;-145.63;34.79;38490.41;5023713;28;20033;-66
2023/08/22 09:44:57;;;;;;;12.32;6.38;;;;;;;-145.63;34.89;38435.66;5018520;28;20026;-67
2023/08/22 09:47:29;;;;;;;14.45;7.07;;;;;;;-145.63;35.63;38445.44;5024024;28;20030;-69
2023/08/22 09:50:04;;;;;;;;;;;;;;;-145.63;36.20;38433.69;5027371;28;20085;-68
2023/08/22 09:52:30;;;;;;;10.63;6.55;;;;;;;-145.63;37.33;38449.34;5023677;28;19911;-68
2023/08/22 09:54:57;;;;;;;16.10;7.43;;;;;;;-145.63;37.46;38443.47;5023187;28;20038;-67
2023/08/22 09:57:25;;;;;;;14.23;6.30;;;;;;;-145.63;35.40;38443.47;5007454;28;20042;-70
2023/08/22 09:59:51;;;;;;;12.90;6.43;;;;;;;-145.63;34.71;38476.72;5020995;28;20037;-67
2023/08/22 10:02:19;;;;;;;10.32;5.65;;;;;;;-145.63;34.47;38468.91;5025611;28;20026;-69
2023/08/22 10:04:46;;;;;;;8.90;5.70;;;;;;;-145.63;35.72;38423.91;5018569;28;20018;-68
2023/08/22 10:07:11;;;;;;;12.10;6.20;;;;;;;-145.63;36.36;38453.25;5024605;28;20048;-70
2023/08/22 10:09:40;;;;;;;9.80;5.30;;;;;;;-145.63;36.21;38521.69;5019533;28;20025;-68
2023/08/22 10:12:12;;;;;;;8.77;5.25;;;;;;;-145.63;36.13;38443.47;5028468;28;20329;-69
2023/08/22 10:14:43;;;;;;;10.15;5.43;;;;;;;-145.63;34.76;38459.13;5026773;28;20026;-69
2023/08/22 10:17:15;;;;;;;8.60;5.60;;;;;;;-145.63;35.20;38349.63;5024543;28;20060;-70
2023/08/22 10:19:42;;;;;;;8.82;5.45;;;;;;;-145.63;36.08;38482.59;5024762;28;20026;-68
2023/08/22 10:22:11;;;;;;;10.77;5.53;;;;;;;-145.63;36.06;38488.44;5029155;28;20068;-69
2023/08/22 10:24:37;;;;;;;10.60;5.47;;;;;;;-145.63;36.93;38494.31;5026374;28;20022;-68
2023/08/22 10:27:16;;;;;;;9.32;5.75;;;;;;;-145.63;36.13;38500.19;5023862;28;20069;-70
2023/08/22 10:29:47;;;;;;;10.77;4.97;;;;;;;-145.63;36.95;38590.13;5029680;28;20040;-69
2023/08/22 10:32:14;;;;;;;8.32;5.30;;;;;;;-145.63;37.54;38476.72;5029710;28;20030;-67
2023/08/22 10:34:43;;;;;;;9.40;5.80;;;;;;;-145.63;38.21;38539.28;5029978;28;20037;-69
2023/08/22 10:37:11;;;;;;;10.98;5.90;;;;;;;-145.63;38.68;37712.25;5027582;28;20302;-68
2023/08/22 10:39:45;;;;;;;11.82;5.88;;;;;;;-145.63;38.74;38195.16;5029468;28;20030;-68
2023/08/22 10:42:13;;;;;;;13.82;5.93;;;;;;;-145.63;38.58;38529.50;5028347;28;20109;-69
2023/08/22 10:44:40;;;;;;;15.57;7.07;;;;;;;-145.63;38.54;38484.53;5028816;28;20045;-67
2023/08/22 10:47:38;;;;;;;13.20;6.22;;;;;;;-145.63;37.88;38508.00;5028570;28;20069;-66
2023/08/22 10:50:11;;;;;;;9.05;5.93;;;;;;;-145.63;36.83;38556.88;5033712;28;20210;-67
2023/08/22 10:52:39;;;;;;;14.50;6.88;;;;;;;-145.63;37.34;38502.13;5029482;28;20061;-66
2023/08/22 10:55:13;;;;;;;11.07;5.53;;;;;;;-145.63;37.35;38492.34;5029243;28;20356;-66
2023/08/22 10:57:45;;;;;;;18.15;7.07;;;;;;;-145.63;37.08;38529.50;5028959;28;20056;-66
2023/08/22 11:00:24;;;;;;;12.35;5.82;;;;;;;-145.63;37.56;38549.06;5027922;28;20273;-68
2023/08/22 11:02:58;;;;;;;12.38;6.18;;;;;;;-145.63;38.57;38562.75;5028877;28;20040;-70